sensor_id;sensor_type;location;lat;lon;timestamp;pressure;altitude;pressure_sealevel;temperature;humidity
53041;BME280;39326;42.650;23.248;2023-04-08T00:01:07;92577.69;;;3.11;68.95
53041;BME280;39326;42.650;23.248;2023-04-08T00:03:33;92580.75;;;3.13;69.20
53041;BME280;39326;42.650;23.248;2023-04-08T00:05:59;92585.91;;;3.10;69.76
53041;BME280;39326;42.650;23.248;2023-04-08T00:08:28;92586.41;;;2.99;69.67
53041;BME280;39326;42.650;23.248;2023-04-08T00:10:53;92582.84;;;3.07;68.19
53041;BME280;39326;42.650;23.248;2023-04-08T00:13:19;92590.09;;;3.11;68.22
53041;BME280;39326;42.650;23.248;2023-04-08T00:15:45;92586.44;;;3.15;67.57
53041;BME280;39326;42.650;23.248;2023-04-08T00:18:13;92586.66;;;3.10;67.87
53041;BME280;39326;42.650;23.248;2023-04-08T00:20:41;92586.59;;;3.06;68.71
53041;BME280;39326;42.650;23.248;2023-04-08T00:23:06;92578.75;;;3.10;67.13
53041;BME280;39326;42.650;23.248;2023-04-08T00:25:33;92577.81;;;3.02;67.47
53041;BME280;39326;42.650;23.248;2023-04-08T00:27:58;92579.72;;;2.90;67.87
53041;BME280;39326;42.650;23.248;2023-04-08T00:30:25;92576.50;;;2.96;68.54
53041;BME280;39326;42.650;23.248;2023-04-08T00:32:54;92577.94;;;2.94;68.56
53041;BME280;39326;42.650;23.248;2023-04-08T00:35:20;92576.09;;;2.94;67.85
53041;BME280;39326;42.650;23.248;2023-04-08T00:37:46;92578.19;;;2.89;68.11
53041;BME280;39326;42.650;23.248;2023-04-08T00:40:12;92577.22;;;2.81;67.57
53041;BME280;39326;42.650;23.248;2023-04-08T00:42:38;92579.31;;;2.75;68.88
53041;BME280;39326;42.650;23.248;2023-04-08T00:45:05;92577.88;;;2.78;68.04
53041;BME280;39326;42.650;23.248;2023-04-08T00:47:31;92583.25;;;2.82;67.67
53041;BME280;39326;42.650;23.248;2023-04-08T00:49:57;92575.16;;;2.74;68.34
53041;BME280;39326;42.650;23.248;2023-04-08T00:52:22;92576.47;;;2.80;68.00
53041;BME280;39326;42.650;23.248;2023-04-08T00:54:48;92563.50;;;2.75;67.18
53041;BME280;39326;42.650;23.248;2023-04-08T00:57:15;92575.69;;;2.80;67.16
53041;BME280;39326;42.650;23.248;2023-04-08T00:59:41;92573.28;;;2.75;67.47
53041;BME280;39326;42.650;23.248;2023-04-08T01:02:28;92578.78;;;2.70;68.42
53041;BME280;39326;42.650;23.248;2023-04-08T01:05:11;92581.38;;;2.82;67.81
53041;BME280;39326;42.650;23.248;2023-04-08T01:07:44;92581.59;;;2.89;68.44
53041;BME280;39326;42.650;23.248;2023-04-08T01:10:17;92592.66;;;2.95;67.68
53041;BME280;39326;42.650;23.248;2023-04-08T01:12:55;92590.78;;;2.95;68.53
53041;BME280;39326;42.650;23.248;2023-04-08T01:15:23;92587.03;;;2.96;67.75
53041;BME280;39326;42.650;23.248;2023-04-08T01:17:53;92590.44;;;2.97;68.08
53041;BME280;39326;42.650;23.248;2023-04-08T01:20:21;92589.25;;;2.94;68.46
53041;BME280;39326;42.650;23.248;2023-04-08T01:23:09;92590.44;;;2.97;69.68
53041;BME280;39326;42.650;23.248;2023-04-08T01:25:38;92585.84;;;2.94;68.44
53041;BME280;39326;42.650;23.248;2023-04-08T01:28:07;92581.69;;;2.93;68.83
53041;BME280;39326;42.650;23.248;2023-04-08T01:30:33;92584.56;;;2.88;69.57
53041;BME280;39326;42.650;23.248;2023-04-08T01:33:01;92589.59;;;2.93;69.82
53041;BME280;39326;42.650;23.248;2023-04-08T01:35:29;92583.78;;;2.87;70.43
53041;BME280;39326;42.650;23.248;2023-04-08T01:37:56;92583.69;;;2.84;70.68
53041;BME280;39326;42.650;23.248;2023-04-08T01:40:23;92583.97;;;2.94;69.66
53041;BME280;39326;42.650;23.248;2023-04-08T01:42:52;92587.16;;;3.00;69.81
53041;BME280;39326;42.650;23.248;2023-04-08T01:45:19;92587.59;;;3.02;68.96
53041;BME280;39326;42.650;23.248;2023-04-08T01:47:48;92596.63;;;2.89;70.32
53041;BME280;39326;42.650;23.248;2023-04-08T01:50:15;92589.47;;;2.89;70.01
53041;BME280;39326;42.650;23.248;2023-04-08T01:52:44;92583.03;;;2.87;70.46
53041;BME280;39326;42.650;23.248;2023-04-08T01:55:11;92591.34;;;2.89;70.48
53041;BME280;39326;42.650;23.248;2023-04-08T01:57:37;92595.66;;;2.81;71.28
53041;BME280;39326;42.650;23.248;2023-04-08T02:00:07;92601.00;;;2.85;70.63
53041;BME280;39326;42.650;23.248;2023-04-08T02:02:37;92608.59;;;2.86;70.41
53041;BME280;39326;42.650;23.248;2023-04-08T02:05:04;92610.88;;;2.88;70.11
53041;BME280;39326;42.650;23.248;2023-04-08T02:07:30;92609.69;;;2.85;69.97
53041;BME280;39326;42.650;23.248;2023-04-08T02:09:57;92616.69;;;2.93;69.76
53041;BME280;39326;42.650;23.248;2023-04-08T02:12:23;92617.47;;;2.94;70.12
53041;BME280;39326;42.650;23.248;2023-04-08T02:14:50;92609.38;;;2.74;70.45
53041;BME280;39326;42.650;23.248;2023-04-08T02:17:25;92616.91;;;2.88;70.50
53041;BME280;39326;42.650;23.248;2023-04-08T02:20:21;92619.09;;;2.98;69.77
53041;BME280;39326;42.650;23.248;2023-04-08T02:25:23;92620.84;;;3.06;69.46
53041;BME280;39326;42.650;23.248;2023-04-08T02:27:51;92619.31;;;3.05;68.94
53041;BME280;39326;42.650;23.248;2023-04-08T02:30:18;92612.50;;;3.04;69.71
53041;BME280;39326;42.650;23.248;2023-04-08T02:32:46;92611.41;;;3.05;69.39
53041;BME280;39326;42.650;23.248;2023-04-08T02:35:12;92618.97;;;3.07;69.69
53041;BME280;39326;42.650;23.248;2023-04-08T02:37:38;92617.88;;;2.96;70.35
53041;BME280;39326;42.650;23.248;2023-04-08T02:40:22;92618.19;;;3.06;70.75
53041;BME280;39326;42.650;23.248;2023-04-08T02:42:49;92615.75;;;3.14;68.92
53041;BME280;39326;42.650;23.248;2023-04-08T02:45:16;92614.47;;;3.07;69.95
53041;BME280;39326;42.650;23.248;2023-04-08T02:47:42;92617.47;;;2.94;71.25
53041;BME280;39326;42.650;23.248;2023-04-08T02:50:09;92612.97;;;2.94;70.32
53041;BME280;39326;42.650;23.248;2023-04-08T02:52:35;92612.06;;;3.02;69.85
53041;BME280;39326;42.650;23.248;2023-04-08T02:55:02;92610.63;;;3.05;69.85
53041;BME280;39326;42.650;23.248;2023-04-08T02:57:28;92614.13;;;3.09;69.63
53041;BME280;39326;42.650;23.248;2023-04-08T02:59:54;92609.63;;;3.10;70.05
53041;BME280;39326;42.650;23.248;2023-04-08T03:02:20;92612.69;;;3.12;69.84
53041;BME280;39326;42.650;23.248;2023-04-08T03:04:46;92612.69;;;3.12;70.10
53041;BME280;39326;42.650;23.248;2023-04-08T03:07:12;92613.28;;;3.05;71.28
53041;BME280;39326;42.650;23.248;2023-04-08T03:09:38;92612.94;;;3.06;70.65
53041;BME280;39326;42.650;23.248;2023-04-08T03:12:04;92608.19;;;3.12;70.44
53041;BME280;39326;42.650;23.248;2023-04-08T03:14:30;92610.91;;;3.16;69.97
53041;BME280;39326;42.650;23.248;2023-04-08T03:16:56;92610.50;;;3.14;70.68
53041;BME280;39326;42.650;23.248;2023-04-08T03:19:22;92604.03;;;3.11;71.22
53041;BME280;39326;42.650;23.248;2023-04-08T03:21:48;92608.19;;;3.12;71.40
53041;BME280;39326;42.650;23.248;2023-04-08T03:24:14;92611.94;;;3.11;70.72
53041;BME280;39326;42.650;23.248;2023-04-08T03:26:40;92607.75;;;3.10;71.38
53041;BME280;39326;42.650;23.248;2023-04-08T03:29:06;92612.25;;;3.10;71.50
53041;BME280;39326;42.650;23.248;2023-04-08T03:31:31;92613.81;;;3.11;71.85
53041;BME280;39326;42.650;23.248;2023-04-08T03:33:57;92609.53;;;3.06;71.14
53041;BME280;39326;42.650;23.248;2023-04-08T03:36:23;92610.53;;;3.01;71.92
53041;BME280;39326;42.650;23.248;2023-04-08T03:38:49;92613.59;;;3.03;72.23
53041;BME280;39326;42.650;23.248;2023-04-08T03:41:15;92619.31;;;3.05;71.51
53041;BME280;39326;42.650;23.248;2023-04-08T03:43:41;92614.38;;;3.04;71.00
53041;BME280;39326;42.650;23.248;2023-04-08T03:46:07;92616.13;;;3.00;71.99
53041;BME280;39326;42.650;23.248;2023-04-08T03:48:33;92612.06;;;3.02;71.04
53041;BME280;39326;42.650;23.248;2023-04-08T03:50:59;92613.91;;;3.02;71.21
53041;BME280;39326;42.650;23.248;2023-04-08T03:53:25;92608.13;;;2.96;71.39
53041;BME280;39326;42.650;23.248;2023-04-08T03:55:53;92606.94;;;2.94;72.50
53041;BME280;39326;42.650;23.248;2023-04-08T03:58:20;92621.19;;;2.93;72.27
53041;BME280;39326;42.650;23.248;2023-04-08T04:00:46;92613.19;;;2.89;73.13
53041;BME280;39326;42.650;23.248;2023-04-08T04:03:12;92610.22;;;2.91;72.32
53041;BME280;39326;42.650;23.248;2023-04-08T04:05:39;92610.47;;;2.86;73.35
53041;BME280;39326;42.650;23.248;2023-04-08T04:08:05;92620.22;;;2.85;73.29
53041;BME280;39326;42.650;23.248;2023-04-08T04:10:31;92609.03;;;2.76;73.04
53041;BME280;39326;42.650;23.248;2023-04-08T04:12:57;92609.38;;;2.74;72.86
53041;BME280;39326;42.650;23.248;2023-04-08T04:15:23;92606.97;;;2.57;74.32
53041;BME280;39326;42.650;23.248;2023-04-08T04:17:48;92620.69;;;2.63;74.22
53041;BME280;39326;42.650;23.248;2023-04-08T04:20:16;92616.31;;;2.67;73.67
53041;BME280;39326;42.650;23.248;2023-04-08T04:22:42;92622.00;;;2.69;73.27
53041;BME280;39326;42.650;23.248;2023-04-08T04:25:08;92622.44;;;2.71;73.40
53041;BME280;39326;42.650;23.248;2023-04-08T04:27:33;92621.22;;;2.80;72.21
53041;BME280;39326;42.650;23.248;2023-04-08T04:30:01;92628.00;;;2.82;73.07
53041;BME280;39326;42.650;23.248;2023-04-08T04:32:28;92627.03;;;2.86;72.82
53041;BME280;39326;42.650;23.248;2023-04-08T04:34:54;92631.72;;;2.93;72.48
53041;BME280;39326;42.650;23.248;2023-04-08T04:37:20;92630.28;;;2.95;72.32
53041;BME280;39326;42.650;23.248;2023-04-08T04:39:46;92615.94;;;2.93;72.88
53041;BME280;39326;42.650;23.248;2023-04-08T04:42:12;92633.25;;;2.94;73.12
53041;BME280;39326;42.650;23.248;2023-04-08T04:44:38;92631.06;;;2.96;73.25
53041;BME280;39326;42.650;23.248;2023-04-08T04:47:04;92628.97;;;2.89;73.35
53041;BME280;39326;42.650;23.248;2023-04-08T04:49:30;92626.13;;;2.94;72.63
53041;BME280;39326;42.650;23.248;2023-04-08T04:51:56;92625.03;;;2.95;72.92
53041;BME280;39326;42.650;23.248;2023-04-08T04:54:22;92635.44;;;3.04;72.95
53041;BME280;39326;42.650;23.248;2023-04-08T04:56:48;92637.28;;;3.03;73.42
53041;BME280;39326;42.650;23.248;2023-04-08T04:59:14;92642.91;;;3.02;73.57
53041;BME280;39326;42.650;23.248;2023-04-08T05:01:39;92625.34;;;3.06;73.28
53041;BME280;39326;42.650;23.248;2023-04-08T05:04:06;92634.63;;;3.16;73.29
53041;BME280;39326;42.650;23.248;2023-04-08T05:06:32;92636.19;;;3.17;73.79
53041;BME280;39326;42.650;23.248;2023-04-08T05:08:58;92634.75;;;3.19;73.91
53041;BME280;39326;42.650;23.248;2023-04-08T05:11:23;92637.59;;;3.14;74.40
53041;BME280;39326;42.650;23.248;2023-04-08T05:13:49;92641.19;;;3.22;73.45
53041;BME280;39326;42.650;23.248;2023-04-08T05:16:15;92646.47;;;3.22;74.33
53041;BME280;39326;42.650;23.248;2023-04-08T05:18:41;92635.97;;;3.10;74.65
53041;BME280;39326;42.650;23.248;2023-04-08T05:21:08;92633.13;;;3.02;75.26
53041;BME280;39326;42.650;23.248;2023-04-08T05:23:34;92638.13;;;3.20;73.94
53041;BME280;39326;42.650;23.248;2023-04-08T05:26:00;92627.94;;;3.18;74.62
53041;BME280;39326;42.650;23.248;2023-04-08T05:28:26;92632.13;;;3.07;74.92
53041;BME280;39326;42.650;23.248;2023-04-08T05:30:52;92634.16;;;3.26;74.20
53041;BME280;39326;42.650;23.248;2023-04-08T05:33:19;92632.03;;;3.44;73.89
53041;BME280;39326;42.650;23.248;2023-04-08T05:35:45;92632.41;;;3.58;73.06
53041;BME280;39326;42.650;23.248;2023-04-08T05:38:11;92635.13;;;3.33;74.23
53041;BME280;39326;42.650;23.248;2023-04-08T05:40:37;92636.28;;;3.20;74.15
53041;BME280;39326;42.650;23.248;2023-04-08T05:43:03;92639.44;;;3.26;75.12
53041;BME280;39326;42.650;23.248;2023-04-08T05:45:29;92636.19;;;3.45;74.11
53041;BME280;39326;42.650;23.248;2023-04-08T05:47:55;92643.66;;;3.71;72.60
53041;BME280;39326;42.650;23.248;2023-04-08T05:50:21;92630.75;;;3.81;72.59
53041;BME280;39326;42.650;23.248;2023-04-08T05:52:47;92642.69;;;3.91;71.77
53041;BME280;39326;42.650;23.248;2023-04-08T05:55:13;92637.81;;;3.77;72.22
53041;BME280;39326;42.650;23.248;2023-04-08T05:57:39;92635.81;;;3.58;73.35
53041;BME280;39326;42.650;23.248;2023-04-08T06:00:07;92636.63;;;3.75;72.23
53041;BME280;39326;42.650;23.248;2023-04-08T06:02:34;92636.50;;;3.55;72.93
53041;BME280;39326;42.650;23.248;2023-04-08T06:05:00;92627.56;;;3.60;72.33
53041;BME280;39326;42.650;23.248;2023-04-08T06:07:26;92637.09;;;3.65;72.91
53041;BME280;39326;42.650;23.248;2023-04-08T06:09:52;92610.91;;;3.72;72.43
53041;BME280;39326;42.650;23.248;2023-04-08T06:12:18;92634.28;;;4.01;71.88
53041;BME280;39326;42.650;23.248;2023-04-08T06:14:44;92632.28;;;4.26;70.68
53041;BME280;39326;42.650;23.248;2023-04-08T06:17:10;92630.59;;;4.18;71.25
53041;BME280;39326;42.650;23.248;2023-04-08T06:19:36;92632.72;;;4.12;70.65
53041;BME280;39326;42.650;23.248;2023-04-08T06:22:02;92629.63;;;4.26;70.69
53041;BME280;39326;42.650;23.248;2023-04-08T06:24:27;92639.25;;;4.50;70.26
53041;BME280;39326;42.650;23.248;2023-04-08T06:26:57;92631.09;;;4.39;70.10
53041;BME280;39326;42.650;23.248;2023-04-08T06:29:23;92636.03;;;4.57;69.79
53041;BME280;39326;42.650;23.248;2023-04-08T06:31:50;92641.56;;;4.67;70.15
53041;BME280;39326;42.650;23.248;2023-04-08T06:34:15;92637.44;;;4.54;69.21
53041;BME280;39326;42.650;23.248;2023-04-08T06:36:42;92646.03;;;4.67;69.25
53041;BME280;39326;42.650;23.248;2023-04-08T06:39:08;92641.75;;;4.43;68.92
53041;BME280;39326;42.650;23.248;2023-04-08T06:41:35;92645.53;;;4.77;68.53
53041;BME280;39326;42.650;23.248;2023-04-08T06:44:01;92642.94;;;4.96;67.87
53041;BME280;39326;42.650;23.248;2023-04-08T06:46:27;92643.53;;;5.06;67.31
53041;BME280;39326;42.650;23.248;2023-04-08T06:48:53;92648.19;;;5.12;66.86
53041;BME280;39326;42.650;23.248;2023-04-08T06:51:20;92644.94;;;5.19;66.66
53041;BME280;39326;42.650;23.248;2023-04-08T06:53:47;92647.88;;;5.33;65.99
53041;BME280;39326;42.650;23.248;2023-04-08T06:56:13;92646.06;;;5.37;66.26
53041;BME280;39326;42.650;23.248;2023-04-08T06:58:40;92632.84;;;5.18;66.60
53041;BME280;39326;42.650;23.248;2023-04-08T07:01:06;92653.06;;;5.30;66.65
53041;BME280;39326;42.650;23.248;2023-04-08T07:03:31;92648.34;;;5.39;66.54
53041;BME280;39326;42.650;23.248;2023-04-08T07:05:58;92649.88;;;5.40;66.75
53041;BME280;39326;42.650;23.248;2023-04-08T07:08:24;92653.38;;;5.25;66.84
53041;BME280;39326;42.650;23.248;2023-04-08T07:10:51;92652.94;;;5.42;66.36
53041;BME280;39326;42.650;23.248;2023-04-08T07:13:18;92650.38;;;5.65;65.70
53041;BME280;39326;42.650;23.248;2023-04-08T07:15:44;92664.09;;;5.51;66.13
53041;BME280;39326;42.650;23.248;2023-04-08T07:18:10;92660.34;;;5.52;65.65
53041;BME280;39326;42.650;23.248;2023-04-08T07:20:36;92663.88;;;5.60;65.88
53041;BME280;39326;42.650;23.248;2023-04-08T07:23:03;92659.44;;;5.64;65.96
53041;BME280;39326;42.650;23.248;2023-04-08T07:25:29;92658.25;;;5.81;65.42
53041;BME280;39326;42.650;23.248;2023-04-08T07:27:55;92665.06;;;6.01;64.72
53041;BME280;39326;42.650;23.248;2023-04-08T07:30:22;92668.66;;;6.12;64.23
53041;BME280;39326;42.650;23.248;2023-04-08T07:32:47;92672.56;;;6.18;63.47
53041;BME280;39326;42.650;23.248;2023-04-08T07:35:13;92673.69;;;6.40;63.75
53041;BME280;39326;42.650;23.248;2023-04-08T07:37:39;92677.81;;;6.38;62.84
53041;BME280;39326;42.650;23.248;2023-04-08T07:40:06;92684.00;;;6.45;63.04
53041;BME280;39326;42.650;23.248;2023-04-08T07:42:32;92681.88;;;6.31;63.13
53041;BME280;39326;42.650;23.248;2023-04-08T07:44:58;92683.69;;;6.50;62.33
53041;BME280;39326;42.650;23.248;2023-04-08T07:47:24;92685.91;;;6.25;63.29
53041;BME280;39326;42.650;23.248;2023-04-08T07:49:50;92692.94;;;6.37;63.03
53041;BME280;39326;42.650;23.248;2023-04-08T07:52:16;92697.88;;;6.39;63.65
53041;BME280;39326;42.650;23.248;2023-04-08T07:54:42;92694.03;;;6.36;62.90
53041;BME280;39326;42.650;23.248;2023-04-08T07:57:08;92696.44;;;6.22;63.18
53041;BME280;39326;42.650;23.248;2023-04-08T07:59:34;92700.69;;;6.49;62.45
53041;BME280;39326;42.650;23.248;2023-04-08T08:02:00;92700.81;;;6.34;63.01
53041;BME280;39326;42.650;23.248;2023-04-08T08:04:25;92699.50;;;6.66;62.49
53041;BME280;39326;42.650;23.248;2023-04-08T08:06:51;92704.72;;;6.85;62.03
53041;BME280;39326;42.650;23.248;2023-04-08T08:09:18;92697.06;;;6.80;61.95
53041;BME280;39326;42.650;23.248;2023-04-08T08:11:44;92698.25;;;6.60;61.77
53041;BME280;39326;42.650;23.248;2023-04-08T08:14:10;92705.91;;;6.88;62.01
53041;BME280;39326;42.650;23.248;2023-04-08T08:16:38;92702.34;;;7.03;61.62
53041;BME280;39326;42.650;23.248;2023-04-08T08:19:04;92703.00;;;6.97;61.51
53041;BME280;39326;42.650;23.248;2023-04-08T08:21:32;92703.97;;;7.11;61.68
53041;BME280;39326;42.650;23.248;2023-04-08T08:23:58;92711.38;;;6.99;61.52
53041;BME280;39326;42.650;23.248;2023-04-08T08:26:24;92708.22;;;6.90;62.03
53041;BME280;39326;42.650;23.248;2023-04-08T08:28:50;92703.38;;;7.22;61.27
53041;BME280;39326;42.650;23.248;2023-04-08T08:31:16;92711.13;;;7.07;61.03
53041;BME280;39326;42.650;23.248;2023-04-08T08:33:43;92704.75;;;7.12;61.60
53041;BME280;39326;42.650;23.248;2023-04-08T08:36:09;92709.44;;;7.22;61.34
53041;BME280;39326;42.650;23.248;2023-04-08T08:38:35;92718.78;;;7.39;61.63
53041;BME280;39326;42.650;23.248;2023-04-08T08:41:01;92708.00;;;7.55;61.08
53041;BME280;39326;42.650;23.248;2023-04-08T08:43:29;92704.41;;;7.70;59.99
53041;BME280;39326;42.650;23.248;2023-04-08T08:45:58;92704.06;;;7.72;60.35
53041;BME280;39326;42.650;23.248;2023-04-08T08:48:24;92698.38;;;7.73;60.16
53041;BME280;39326;42.650;23.248;2023-04-08T08:50:50;92688.66;;;7.84;59.65
53041;BME280;39326;42.650;23.248;2023-04-08T08:53:17;92702.59;;;8.08;59.70
53041;BME280;39326;42.650;23.248;2023-04-08T08:55:44;92698.31;;;8.00;59.89
53041;BME280;39326;42.650;23.248;2023-04-08T08:58:09;92706.69;;;8.02;60.20
53041;BME280;39326;42.650;23.248;2023-04-08T09:00:37;92706.84;;;8.16;60.42
53041;BME280;39326;42.650;23.248;2023-04-08T09:03:19;92701.53;;;8.16;59.47
53041;BME280;39326;42.650;23.248;2023-04-08T09:05:56;92706.06;;;8.45;59.40
53041;BME280;39326;42.650;23.248;2023-04-08T09:11:11;92712.25;;;8.60;58.30
53041;BME280;39326;42.650;23.248;2023-04-08T09:13:37;92707.13;;;8.82;57.62
53041;BME280;39326;42.650;23.248;2023-04-08T09:16:05;92712.88;;;8.87;56.78
53041;BME280;39326;42.650;23.248;2023-04-08T09:18:34;92709.16;;;8.95;56.75
53041;BME280;39326;42.650;23.248;2023-04-08T09:21:02;92709.75;;;9.22;56.12
53041;BME280;39326;42.650;23.248;2023-04-08T09:23:44;92692.69;;;9.27;56.25
53041;BME280;39326;42.650;23.248;2023-04-08T09:26:11;92694.44;;;9.09;54.76
53041;BME280;39326;42.650;23.248;2023-04-08T09:28:39;92699.16;;;8.82;54.89
53041;BME280;39326;42.650;23.248;2023-04-08T09:33:47;92697.41;;;9.00;54.64
53041;BME280;39326;42.650;23.248;2023-04-08T09:36:14;92688.72;;;9.07;54.56
53041;BME280;39326;42.650;23.248;2023-04-08T09:38:41;92691.13;;;9.26;54.38
53041;BME280;39326;42.650;23.248;2023-04-08T09:41:07;92686.56;;;9.23;55.02
53041;BME280;39326;42.650;23.248;2023-04-08T09:43:41;92695.63;;;9.18;55.00
53041;BME280;39326;42.650;23.248;2023-04-08T09:46:10;92691.28;;;8.92;55.93
53041;BME280;39326;42.650;23.248;2023-04-08T09:48:41;92684.75;;;8.86;55.63
53041;BME280;39326;42.650;23.248;2023-04-08T09:51:10;92687.53;;;9.00;55.93
53041;BME280;39326;42.650;23.248;2023-04-08T09:53:41;92688.06;;;9.24;56.39
53041;BME280;39326;42.650;23.248;2023-04-08T09:56:11;92683.13;;;9.22;55.99
53041;BME280;39326;42.650;23.248;2023-04-08T09:58:41;92677.72;;;9.08;55.54
53041;BME280;39326;42.650;23.248;2023-04-08T10:01:13;92685.13;;;9.36;54.71
53041;BME280;39326;42.650;23.248;2023-04-08T10:03:48;92682.84;;;9.38;55.04
53041;BME280;39326;42.650;23.248;2023-04-08T10:06:15;92679.19;;;9.64;54.76
53041;BME280;39326;42.650;23.248;2023-04-08T10:08:42;92674.38;;;9.91;54.31
53041;BME280;39326;42.650;23.248;2023-04-08T10:11:09;92674.09;;;10.18;53.06
53041;BME280;39326;42.650;23.248;2023-04-08T10:13:36;92664.28;;;10.50;52.77
53041;BME280;39326;42.650;23.248;2023-04-08T10:16:17;92676.44;;;10.44;50.77
53041;BME280;39326;42.650;23.248;2023-04-08T10:18:43;92681.03;;;10.40;51.86
53041;BME280;39326;42.650;23.248;2023-04-08T10:21:34;92671.41;;;10.11;52.08
53041;BME280;39326;42.650;23.248;2023-04-08T10:24:09;92673.19;;;9.89;52.35
53041;BME280;39326;42.650;23.248;2023-04-08T10:26:38;92674.38;;;9.95;52.70
53041;BME280;39326;42.650;23.248;2023-04-08T10:29:31;92678.22;;;10.01;52.78
53041;BME280;39326;42.650;23.248;2023-04-08T10:31:57;92672.84;;;9.90;53.05
53041;BME280;39326;42.650;23.248;2023-04-08T10:34:24;92665.63;;;9.98;53.07
53041;BME280;39326;42.650;23.248;2023-04-08T10:36:51;92666.03;;;9.96;53.72
53041;BME280;39326;42.650;23.248;2023-04-08T10:39:18;92651.16;;;9.95;53.37
53041;BME280;39326;42.650;23.248;2023-04-08T10:41:47;92655.72;;;9.91;53.50
53041;BME280;39326;42.650;23.248;2023-04-08T10:44:24;92656.19;;;10.04;52.55
53041;BME280;39326;42.650;23.248;2023-04-08T10:46:51;92659.59;;;10.04;52.81
53041;BME280;39326;42.650;23.248;2023-04-08T10:49:17;92653.50;;;10.07;53.33
53041;BME280;39326;42.650;23.248;2023-04-08T10:51:43;92639.84;;;10.23;54.44
53041;BME280;39326;42.650;23.248;2023-04-08T10:54:12;92637.63;;;10.61;53.49
53041;BME280;39326;42.650;23.248;2023-04-08T10:56:49;92640.31;;;10.65;51.54
53041;BME280;39326;42.650;23.248;2023-04-08T10:59:16;92647.13;;;10.44;52.26
53041;BME280;39326;42.650;23.248;2023-04-08T11:01:45;92651.28;;;10.27;53.02
53041;BME280;39326;42.650;23.248;2023-04-08T11:04:16;92633.00;;;10.22;53.21
53041;BME280;39326;42.650;23.248;2023-04-08T11:06:48;92626.16;;;10.21;53.01
53041;BME280;39326;42.650;23.248;2023-04-08T11:09:14;92628.41;;;10.12;53.08
53041;BME280;39326;42.650;23.248;2023-04-08T11:11:42;92634.88;;;10.18;53.47
53041;BME280;39326;42.650;23.248;2023-04-08T11:14:08;92616.63;;;10.31;52.43
53041;BME280;39326;42.650;23.248;2023-04-08T11:16:35;92619.31;;;10.45;52.66
53041;BME280;39326;42.650;23.248;2023-04-08T11:19:03;92613.63;;;10.54;52.28
53041;BME280;39326;42.650;23.248;2023-04-08T11:21:36;92610.56;;;10.41;52.55
53041;BME280;39326;42.650;23.248;2023-04-08T11:24:08;92606.78;;;10.46;52.15
53041;BME280;39326;42.650;23.248;2023-04-08T11:26:35;92610.19;;;10.57;51.52
53041;BME280;39326;42.650;23.248;2023-04-08T11:29:01;92599.88;;;10.38;51.78
53041;BME280;39326;42.650;23.248;2023-04-08T11:31:28;92593.03;;;10.29;52.11
53041;BME280;39326;42.650;23.248;2023-04-08T11:33:55;92602.16;;;10.32;51.87
53041;BME280;39326;42.650;23.248;2023-04-08T11:36:21;92599.53;;;10.46;51.67
53041;BME280;39326;42.650;23.248;2023-04-08T11:38:47;92589.97;;;10.70;51.08
53041;BME280;39326;42.650;23.248;2023-04-08T11:41:13;92589.59;;;10.93;50.71
53041;BME280;39326;42.650;23.248;2023-04-08T11:43:50;92572.44;;;10.94;50.04
53041;BME280;39326;42.650;23.248;2023-04-08T11:46:16;92569.00;;;10.94;50.09
53041;BME280;39326;42.650;23.248;2023-04-08T11:49:05;92567.91;;;10.66;49.62
53041;BME280;39326;42.650;23.248;2023-04-08T11:54:28;92583.13;;;10.51;49.65
53041;BME280;39326;42.650;23.248;2023-04-08T11:56:55;92565.63;;;10.43;49.50
53041;BME280;39326;42.650;23.248;2023-04-08T11:59:25;92559.13;;;10.16;49.87
53041;BME280;39326;42.650;23.248;2023-04-08T12:01:51;92557.97;;;10.06;49.87
53041;BME280;39326;42.650;23.248;2023-04-08T12:04:18;92559.88;;;10.02;49.86
53041;BME280;39326;42.650;23.248;2023-04-08T12:06:43;92556.78;;;9.89;49.90
53041;BME280;39326;42.650;23.248;2023-04-08T12:09:13;92550.31;;;9.83;50.51
53041;BME280;39326;42.650;23.248;2023-04-08T12:11:40;92541.88;;;9.67;50.93
53041;BME280;39326;42.650;23.248;2023-04-08T12:14:05;92542.66;;;9.74;51.04
53041;BME280;39326;42.650;23.248;2023-04-08T12:16:31;92556.00;;;9.92;50.63
53041;BME280;39326;42.650;23.248;2023-04-08T12:18:56;92543.91;;;10.02;50.82
53041;BME280;39326;42.650;23.248;2023-04-08T12:21:22;92540.84;;;10.11;50.81
53041;BME280;39326;42.650;23.248;2023-04-08T12:23:48;92539.31;;;10.13;50.85
53041;BME280;39326;42.650;23.248;2023-04-08T12:26:14;92538.19;;;10.03;51.18
53041;BME280;39326;42.650;23.248;2023-04-08T12:28:40;92530.50;;;9.77;51.44
53041;BME280;39326;42.650;23.248;2023-04-08T12:31:06;92536.97;;;9.87;51.00
53041;BME280;39326;42.650;23.248;2023-04-08T12:33:31;92537.75;;;9.91;50.46
53041;BME280;39326;42.650;23.248;2023-04-08T12:35:57;92539.59;;;9.76;50.57
53041;BME280;39326;42.650;23.248;2023-04-08T12:38:24;92543.78;;;9.73;51.19
53041;BME280;39326;42.650;23.248;2023-04-08T12:40:50;92543.00;;;9.69;51.28
53041;BME280;39326;42.650;23.248;2023-04-08T12:43:16;92541.38;;;9.29;53.03
53041;BME280;39326;42.650;23.248;2023-04-08T12:45:41;92549.31;;;9.25;54.47
53041;BME280;39326;42.650;23.248;2023-04-08T12:48:07;92552.25;;;8.99;56.37
53041;BME280;39326;42.650;23.248;2023-04-08T12:50:33;92558.69;;;8.98;57.06
53041;BME280;39326;42.650;23.248;2023-04-08T12:52:59;92564.84;;;9.09;56.55
53041;BME280;39326;42.650;23.248;2023-04-08T12:55:25;92559.97;;;9.25;57.34
53041;BME280;39326;42.650;23.248;2023-04-08T12:57:51;92566.50;;;9.42;57.95
53041;BME280;39326;42.650;23.248;2023-04-08T13:00:17;92566.56;;;9.53;59.17
53041;BME280;39326;42.650;23.248;2023-04-08T13:02:42;92568.47;;;9.56;60.38
53041;BME280;39326;42.650;23.248;2023-04-08T13:05:09;92562.47;;;9.77;63.51
53041;BME280;39326;42.650;23.248;2023-04-08T13:07:35;92562.50;;;9.91;63.02
53041;BME280;39326;42.650;23.248;2023-04-08T13:10:00;92570.16;;;10.03;61.53
53041;BME280;39326;42.650;23.248;2023-04-08T13:12:26;92561.78;;;10.08;60.90